createdAt,value
2023-05-05T00:02:13.254Z,101536.13
2023-05-05T00:05:10.360Z,101525.50
2023-05-05T00:08:00.497Z,101524.50
2023-05-05T00:10:30.344Z,101520.97
2023-05-05T00:12:57.114Z,101515.84
2023-05-05T00:15:36.520Z,101512.28
2023-05-05T00:18:09.967Z,101504.47
2023-05-05T00:20:39.964Z,101506.66
2023-05-05T00:23:30.622Z,101519.72
2023-05-05T00:25:57.884Z,101506.50
2023-05-05T00:28:31.177Z,101491.72
2023-05-05T00:31:00.365Z,101494.41
2023-05-05T00:33:29.770Z,101498.41
2023-05-05T00:36:01.942Z,101495.13
2023-05-05T00:38:34.971Z,101491.44
2023-05-05T00:41:12.950Z,101492.44
2023-05-05T00:46:37.120Z,101490.19
2023-05-05T00:49:31.923Z,101499.94
2023-05-05T00:52:02.827Z,101499.25
2023-05-05T00:54:35.209Z,101481.41
2023-05-05T00:57:26.027Z,101487.50
2023-05-05T01:00:01.459Z,101489.44
2023-05-05T01:02:28.453Z,101490.53
2023-05-05T01:04:58.781Z,101481.41
2023-05-05T01:08:25.879Z,101482.13
2023-05-05T01:11:26.672Z,101482.47
2023-05-05T01:14:34.754Z,101485.28
2023-05-05T01:17:18.273Z,101485.34
2023-05-05T01:20:42.541Z,101482.09
2023-05-05T01:23:55.523Z,101477.69
2023-05-05T01:27:09.525Z,101477.81
2023-05-05T01:30:56.839Z,101485.75
2023-05-05T01:33:58.347Z,101482.69
2023-05-05T01:37:13.902Z,101482.53
2023-05-05T01:39:44.813Z,101478.91
2023-05-05T01:42:23.879Z,101480.34
2023-05-05T01:45:09.172Z,101479.34
2023-05-05T01:47:49.175Z,101477.50
2023-05-05T01:50:23.421Z,101472.63
2023-05-05T01:52:58.991Z,101471.41
2023-05-05T01:55:34.578Z,101465.06
2023-05-05T01:58:08.439Z,101472.63
2023-05-05T02:00:36.097Z,101472.72
2023-05-05T02:03:34.195Z,101471.88
2023-05-05T02:06:17.226Z,101473.47
2023-05-05T02:08:50.583Z,101466.28
2023-05-05T02:11:21.967Z,101465.53
2023-05-05T02:14:42.359Z,101457.38
2023-05-05T02:17:25.473Z,101466.63
2023-05-05T02:20:07.250Z,101471.13
2023-05-05T02:23:12.524Z,101459.50
2023-05-05T02:26:12.834Z,101467.81
2023-05-05T02:35:24.791Z,101456.13
2023-05-05T02:38:19.867Z,101444.22
2023-05-05T02:41:02.216Z,101452.16
2023-05-05T02:43:46.872Z,101448.28
2023-05-05T02:46:17.698Z,101449.25
2023-05-05T02:48:45.797Z,101442.06
2023-05-05T02:51:17.493Z,101444.34
2023-05-05T02:53:50.821Z,101447.53
2023-05-05T02:56:43.030Z,101441.66
2023-05-05T02:59:58.730Z,101458.25
2023-05-05T03:03:32.518Z,101448.84
2023-05-05T03:10:11.468Z,101446.91
2023-05-05T03:13:01.297Z,101429.31
2023-05-05T03:15:44.432Z,101432.84
2023-05-05T03:18:15.610Z,101424.56
2023-05-05T03:21:02.690Z,101413.13
2023-05-05T03:23:33.844Z,101411.38
2023-05-05T03:28:47.712Z,101391.50
2023-05-05T03:31:23.527Z,101395.78
2023-05-05T03:34:15.118Z,101402.63
2023-05-05T03:36:46.252Z,101397.38
2023-05-05T03:39:13.236Z,101396.53
2023-05-05T03:42:06.568Z,101399.94
2023-05-05T03:44:45.455Z,101396.53
2023-05-05T03:47:15.273Z,101409.50
2023-05-05T03:49:45.141Z,101401.53
2023-05-05T03:52:15.082Z,101388.25
2023-05-05T03:54:45.892Z,101398.00
2023-05-05T03:57:29.849Z,101387.38
2023-05-05T04:00:15.212Z,101394.22
2023-05-05T04:02:49.377Z,101399.59
2023-05-05T04:05:28.384Z,101406.13
2023-05-05T04:08:24.625Z,101371.81
2023-05-05T04:10:51.697Z,101389.03
2023-05-05T04:13:26.392Z,101400.03
2023-05-05T04:16:00.375Z,101388.81
2023-05-05T04:18:34.656Z,101409.47
2023-05-05T04:21:36.144Z,101412.41
2023-05-05T04:24:03.486Z,101411.56
2023-05-05T04:26:34.919Z,101402.75
2023-05-05T04:29:02.119Z,101402.03
2023-05-05T04:31:36.263Z,101414.50
2023-05-05T04:34:09.867Z,101392.16
2023-05-05T04:36:39.808Z,101374.56
2023-05-05T04:39:39.703Z,101395.91
2023-05-05T04:42:15.655Z,101389.09
2023-05-05T05:40:36.608Z,101436.28
2023-05-05T06:25:45.970Z,101458.13
2023-05-05T06:28:24.666Z,101450.63
2023-05-05T06:31:10.626Z,101457.59
2023-05-05T06:34:11.222Z,101459.19
2023-05-05T06:36:51.373Z,101465.03
2023-05-05T06:39:49.033Z,101459.50
2023-05-05T06:45:19.881Z,101426.97
2023-05-05T06:47:57.402Z,101441.09
2023-05-05T06:51:24.970Z,101446.75
2023-05-05T06:53:51.975Z,101444.47
2023-05-05T06:56:28.803Z,101440.75
2023-05-05T06:59:25.218Z,101436.81
2023-05-05T07:02:10.456Z,101414.59
2023-05-05T07:08:15.625Z,101430.22
2023-05-05T07:10:45.109Z,101421.63
2023-05-05T07:15:46.783Z,101419.50
2023-05-05T07:18:22.021Z,101431.63
2023-05-05T07:20:55.401Z,101431.31
2023-05-05T07:23:28.381Z,101428.53
2023-05-05T07:26:12.409Z,101432.59
2023-05-05T07:28:43.947Z,101434.25
2023-05-05T07:31:19.469Z,101448.88
2023-05-05T07:34:24.713Z,101446.38
2023-05-05T07:36:51.583Z,101457.69
2023-05-05T07:39:34.872Z,101449.88
2023-05-05T07:45:22.437Z,101457.63
2023-05-05T07:48:11.284Z,101451.47
2023-05-05T07:50:38.161Z,101478.84
2023-05-05T07:53:25.753Z,101457.66
2023-05-05T07:55:54.956Z,101466.28
2023-05-05T07:58:32.068Z,101473.31
2023-05-05T08:04:18.882Z,101457.88
2023-05-05T08:07:11.181Z,101488.69
2023-05-05T08:09:38.656Z,101467.56
2023-05-05T08:12:08.605Z,101472.41
2023-05-05T08:14:43.163Z,101465.88
2023-05-05T08:17:17.587Z,101461.16
2023-05-05T08:19:51.199Z,101469.13
2023-05-05T08:22:21.056Z,101474.97
2023-05-05T08:24:47.962Z,101479.09
2023-05-05T08:27:16.857Z,101481.94
2023-05-05T08:30:24.548Z,101469.38
2023-05-05T08:33:46.682Z,101482.31
2023-05-05T08:36:31.906Z,101498.59
2023-05-05T08:39:28.429Z,101487.22
2023-05-05T08:41:58.464Z,101498.44
2023-05-05T08:44:46.098Z,101487.63
2023-05-05T08:47:27.502Z,101501.13
2023-05-05T08:53:26.280Z,101494.13
2023-05-05T08:56:08.287Z,101488.84
2023-05-05T08:58:38.410Z,101506.59
2023-05-05T09:01:18.650Z,101502.13
2023-05-05T09:04:01.995Z,101485.38
2023-05-05T09:06:33.842Z,101495.59
2023-05-05T09:09:11.548Z,101493.59
2023-05-05T09:11:46.392Z,101495.25
2023-05-05T09:14:26.032Z,101503.88
2023-05-05T09:16:55.435Z,101497.81
2023-05-05T09:20:11.486Z,101503.63
2023-05-05T09:23:10.198Z,101515.56
2023-05-05T09:25:46.737Z,101517.06
2023-05-05T09:28:30.438Z,101478.66
2023-05-05T09:31:37.068Z,101484.06
2023-05-05T09:34:17.466Z,101499.63
2023-05-05T09:36:49.080Z,101501.69
2023-05-05T09:39:29.339Z,101508.72
2023-05-05T09:41:56.377Z,101503.34
2023-05-05T09:45:41.033Z,101497.88
2023-05-05T09:48:03.181Z,101521.09
2023-05-05T09:51:00.869Z,101526.84
2023-05-05T09:53:40.485Z,101514.56
2023-05-05T09:56:15.849Z,101509.81
2023-05-05T10:01:25.557Z,101484.78
2023-05-05T10:03:59.702Z,101501.78
2023-05-05T10:07:01.911Z,101503.94
2023-05-05T10:09:32.518Z,101497.59
2023-05-05T10:12:21.943Z,101505.03
2023-05-05T10:15:13.509Z,101505.75
2023-05-05T10:18:07.732Z,101497.97
2023-05-05T10:20:48.624Z,101505.41
2023-05-05T10:23:34.667Z,101496.56
2023-05-05T10:26:39.250Z,101500.72
2023-05-05T10:36:14.098Z,101471.28
2023-05-05T10:39:02.186Z,101467.63
2023-05-05T10:41:37.875Z,101479.66
2023-05-05T10:44:58.398Z,101449.78
2023-05-05T10:47:43.437Z,101449.22
2023-05-05T10:50:43.916Z,101462.16
2023-05-05T10:53:32.150Z,101428.16
2023-05-05T10:56:36.123Z,101435.41
2023-05-05T10:59:25.169Z,101424.00
2023-05-05T11:01:59.584Z,101429.59
2023-05-05T11:04:26.927Z,101434.28
2023-05-05T11:07:32.582Z,101450.66
2023-05-05T11:10:23.832Z,101448.69
2023-05-05T11:13:12.650Z,101466.53
2023-05-05T11:15:42.009Z,101450.56
2023-05-05T11:18:38.392Z,101432.00
2023-05-05T11:21:27.698Z,101439.84
2023-05-05T11:24:33.767Z,101430.94
2023-05-05T11:27:03.303Z,101435.09
2023-05-05T11:30:21.684Z,101425.00
2023-05-05T11:33:40.557Z,101430.97
2023-05-05T11:37:02.823Z,101427.69
2023-05-05T11:43:49.783Z,101411.50
2023-05-05T11:46:20.808Z,101419.44
2023-05-05T11:48:58.409Z,101414.47
2023-05-05T11:51:29.073Z,101402.72
2023-05-05T11:53:59.154Z,101403.13
2023-05-05T11:56:35.104Z,101394.75
2023-05-05T11:59:23.118Z,101392.47
2023-05-05T12:01:57.909Z,101403.69
2023-05-05T12:04:25.600Z,101417.06
2023-05-05T12:09:33.544Z,101416.50
2023-05-05T12:12:06.260Z,101403.91
2023-05-05T12:14:34.358Z,101407.56
2023-05-05T12:17:19.842Z,101404.75
2023-05-05T12:20:00.561Z,101423.22
2023-05-05T12:22:30.579Z,101416.84
2023-05-05T12:25:46.426Z,101422.28
2023-05-05T12:28:16.056Z,101410.00
2023-05-05T12:30:43.027Z,101421.88
2023-05-05T12:33:30.573Z,101415.66
2023-05-05T12:36:02.949Z,101398.31
2023-05-05T12:38:32.031Z,101434.97
2023-05-05T12:40:58.988Z,101404.63
2023-05-05T12:43:38.937Z,101399.22
2023-05-05T13:45:20.005Z,101365.13
2023-05-05T14:59:42.450Z,101320.09
2023-05-05T16:50:16.549Z,101246.50
2023-05-05T18:19:24.658Z,101264.59
2023-05-05T18:50:16.762Z,101261.09
2023-05-05T19:47:11.237Z,101309.94
2023-05-05T20:14:18.206Z,101287.00
2023-05-05T20:16:45.628Z,101285.53
2023-05-05T20:43:33.924Z,101275.44
2023-05-05T20:46:01.421Z,101271.06
2023-05-05T20:48:29.300Z,101257.91
2023-05-05T20:50:57.659Z,101257.91
2023-05-05T20:53:30.560Z,101242.03
2023-05-05T20:55:57.605Z,101216.25
2023-05-05T20:58:30.457Z,101235.94
2023-05-05T21:00:57.616Z,101230.59
2023-05-05T21:03:24.948Z,101233.25
2023-05-05T21:05:51.954Z,101226.53
2023-05-05T21:08:18.646Z,101217.66
2023-05-05T21:10:48.352Z,101220.53
2023-05-05T21:13:15.464Z,101223.97
2023-05-05T21:15:42.370Z,101222.34
2023-05-05T21:18:14.007Z,101217.84
2023-05-05T21:20:41.120Z,101234.88
2023-05-05T21:23:10.614Z,101225.25
2023-05-05T21:25:40.730Z,101229.41
2023-05-05T21:28:09.716Z,101217.31
2023-05-05T21:30:36.596Z,101220.00
2023-05-05T21:33:03.449Z,101210.47
2023-05-05T21:35:30.435Z,101192.81
2023-05-05T21:37:57.134Z,101199.69
2023-05-05T21:40:24.110Z,101200.75
2023-05-05T21:42:50.820Z,101213.38
2023-05-05T21:45:17.770Z,101212.81
2023-05-05T21:47:44.627Z,101215.47
2023-05-05T21:50:12.324Z,101214.44
2023-05-05T21:52:39.645Z,101228.00
2023-05-05T21:55:07.268Z,101245.88
2023-05-05T21:57:34.073Z,101223.81
2023-05-05T22:00:03.582Z,101222.03
2023-05-05T22:02:32.990Z,101233.69
2023-05-05T22:04:59.895Z,101246.22
2023-05-05T22:07:27.544Z,101229.41
2023-05-05T22:09:57.361Z,101216.16
2023-05-05T22:12:24.202Z,101227.28
2023-05-05T22:14:50.993Z,101214.56
2023-05-05T22:17:20.969Z,101206.53
2023-05-05T22:19:53.367Z,101199.97
2023-05-05T22:22:20.174Z,101201.06
2023-05-05T22:24:46.930Z,101198.91
2023-05-05T22:27:13.813Z,101192.28
2023-05-05T22:29:40.622Z,101197.19
2023-05-05T22:32:07.637Z,101200.84
2023-05-05T22:34:38.270Z,101200.53
2023-05-05T22:37:08.501Z,101189.69
2023-05-05T22:39:37.740Z,101196.03
2023-05-05T22:42:07.496Z,101181.06
2023-05-05T22:44:38.957Z,101194.00
2023-05-05T22:47:13.424Z,101204.59
2023-05-05T22:49:40.720Z,101203.72
2023-05-05T22:52:07.640Z,101205.75
2023-05-05T22:54:34.406Z,101199.88
2023-05-05T22:57:06.989Z,101194.63
2023-05-05T22:59:33.787Z,101195.47
2023-05-05T23:02:03.596Z,101201.16
2023-05-05T23:04:35.463Z,101206.84
2023-05-05T23:07:02.341Z,101206.19
2023-05-05T23:09:32.184Z,101222.56
2023-05-05T23:11:58.840Z,101218.63
2023-05-05T23:14:26.131Z,101211.84
2023-05-05T23:16:54.013Z,101213.38
2023-05-05T23:19:26.951Z,101224.69
2023-05-05T23:22:03.689Z,101207.78
2023-05-05T23:24:30.873Z,101219.56
2023-05-05T23:27:06.885Z,101212.19
2023-05-05T23:29:33.789Z,101216.22
2023-05-05T23:32:00.746Z,101207.34
2023-05-05T23:34:27.508Z,101214.53
2023-05-05T23:36:57.462Z,101220.31
2023-05-05T23:39:27.364Z,101223.09
2023-05-05T23:41:57.104Z,101211.63
2023-05-05T23:44:24.230Z,101211.28
2023-05-05T23:46:51.179Z,101217.41
2023-05-05T23:49:18.305Z,101192.31
2023-05-05T23:51:45.371Z,101215.56
2023-05-05T23:54:12.198Z,101210.75
2023-05-05T23:56:40.734Z,101204.84
2023-05-05T23:59:10.439Z,101201.22
